createdAt,value
2024-05-09T00:03:32.451Z,10.31
2024-05-09T00:08:33.541Z,10.24
2024-05-09T00:13:34.407Z,10.35
2024-05-09T00:18:35.272Z,10.23
2024-05-09T00:23:36.268Z,10.15
2024-05-09T00:28:37.132Z,10.06
2024-05-09T00:33:38.096Z,10.06
2024-05-09T00:38:38.974Z,9.97
2024-05-09T00:43:39.807Z,9.91
2024-05-09T00:48:40.789Z,9.84
2024-05-09T00:53:41.868Z,9.77
2024-05-09T00:58:42.961Z,9.76
2024-05-09T01:03:45.919Z,9.70
2024-05-09T01:08:47.452Z,9.61
2024-05-09T01:13:48.268Z,9.56
2024-05-09T01:18:49.501Z,9.56
2024-05-09T01:23:50.399Z,9.56
2024-05-09T01:28:51.244Z,9.54
2024-05-09T01:33:52.156Z,9.38
2024-05-09T01:38:52.994Z,9.38
2024-05-09T01:43:53.801Z,9.21
2024-05-09T01:48:54.736Z,9.21
2024-05-09T01:53:55.628Z,9.24
2024-05-09T01:58:56.533Z,9.29
2024-05-09T02:03:57.592Z,9.22
2024-05-09T02:08:58.462Z,9.12
2024-05-09T02:13:59.257Z,9.13
2024-05-09T02:19:00.302Z,9.08
2024-05-09T02:24:01.273Z,9.16
2024-05-09T02:29:02.060Z,9.13
2024-05-09T02:34:03.256Z,8.95
2024-05-09T02:39:04.224Z,8.75
2024-05-09T02:44:05.017Z,8.70
2024-05-09T02:49:06.005Z,8.66
2024-05-09T02:54:09.053Z,8.71
2024-05-09T02:59:09.880Z,8.66
2024-05-09T03:04:10.744Z,8.58
2024-05-09T03:09:11.555Z,8.50
2024-05-09T03:14:18.624Z,8.39
2024-05-09T03:19:19.514Z,8.44
2024-05-09T03:24:20.518Z,8.38
2024-05-09T03:29:21.337Z,8.53
2024-05-09T03:34:22.187Z,8.59
2024-05-09T03:39:22.998Z,8.52
2024-05-09T03:44:23.798Z,8.42
2024-05-09T03:49:24.894Z,8.43
2024-05-09T03:54:26.756Z,8.36
2024-05-09T03:59:27.768Z,8.44
2024-05-09T04:04:28.791Z,8.33
2024-05-09T04:09:29.894Z,8.28
2024-05-09T04:14:30.905Z,8.38
2024-05-09T04:19:31.921Z,8.44
2024-05-09T04:24:32.779Z,8.48
2024-05-09T04:29:36.625Z,8.43
2024-05-09T04:34:37.548Z,8.53
2024-05-09T04:39:38.361Z,8.70
2024-05-09T04:44:39.250Z,8.73
2024-05-09T04:49:41.532Z,8.79
2024-05-09T04:54:42.791Z,8.91
2024-05-09T04:59:43.554Z,9.21
2024-05-09T05:04:44.557Z,9.44
2024-05-09T05:09:45.564Z,9.67
2024-05-09T05:14:46.318Z,9.85
2024-05-09T05:19:47.251Z,10.14
2024-05-09T05:24:48.232Z,10.53
2024-05-09T05:29:49.074Z,10.85
2024-05-09T05:34:49.962Z,10.96
2024-05-09T05:39:50.883Z,11.12
2024-05-09T05:44:51.650Z,11.45
2024-05-09T05:49:52.469Z,11.73
2024-05-09T05:54:55.798Z,11.72
2024-05-09T05:59:56.581Z,12.14
2024-05-09T06:04:57.488Z,12.03
2024-05-09T06:09:58.395Z,12.20
2024-05-09T06:14:59.782Z,12.60
2024-05-09T06:20:00.762Z,12.91
2024-05-09T06:25:01.720Z,13.04
2024-05-09T06:30:03.041Z,13.15
2024-05-09T06:35:05.010Z,13.09
2024-05-09T06:40:07.606Z,13.18
2024-05-09T06:45:10.626Z,12.67
2024-05-09T06:50:20.191Z,12.88
2024-05-09T06:55:24.860Z,12.93
2024-05-09T07:00:34.777Z,13.03
2024-05-09T07:05:39.637Z,13.14
2024-05-09T07:10:40.600Z,13.33
2024-05-09T07:15:41.947Z,13.69
2024-05-09T07:20:42.965Z,13.79
2024-05-09T07:25:44.228Z,13.88
2024-05-09T07:30:45.137Z,14.03
2024-05-09T07:35:46.342Z,14.03
2024-05-09T07:40:47.782Z,14.21
2024-05-09T07:45:53.397Z,14.19
2024-05-09T07:52:39.241Z,14.33
2024-05-09T07:58:34.730Z,14.81
2024-05-09T08:03:36.501Z,14.75
2024-05-09T08:08:37.328Z,15.19
2024-05-09T08:13:38.148Z,15.15
2024-05-09T08:18:39.464Z,15.16
2024-05-09T08:23:40.747Z,15.41
2024-05-09T08:28:41.998Z,15.19
2024-05-09T08:33:46.738Z,15.23
2024-05-09T08:38:48.372Z,15.64
2024-05-09T08:43:49.315Z,15.49
2024-05-09T08:48:51.986Z,15.40
2024-05-09T08:53:53.101Z,15.54
2024-05-09T08:58:57.876Z,15.66
2024-05-09T09:04:02.150Z,16.12
2024-05-09T09:09:03.261Z,16.17
2024-05-09T09:14:04.050Z,16.23
2024-05-09T09:19:04.979Z,15.97
2024-05-09T09:24:09.362Z,15.93
2024-05-09T09:29:11.809Z,16.54
2024-05-09T09:34:12.961Z,16.37
2024-05-09T09:39:17.603Z,16.04
2024-05-09T09:44:18.649Z,16.25
2024-05-09T09:49:19.867Z,16.85
2024-05-09T09:54:21.113Z,17.38
2024-05-09T09:59:22.323Z,16.84
2024-05-09T10:04:23.652Z,16.33
2024-05-09T10:09:25.133Z,16.27
2024-05-09T10:14:26.155Z,17.19
2024-05-09T10:19:27.900Z,16.58
2024-05-09T10:24:51.399Z,17.04
2024-05-09T10:30:09.113Z,17.77
2024-05-09T10:35:18.631Z,16.82
2024-05-09T10:40:26.139Z,17.05
2024-05-09T10:45:31.703Z,16.78
2024-05-09T10:50:34.471Z,18.05
2024-05-09T10:55:35.605Z,18.07
2024-05-09T11:00:36.888Z,18.32
2024-05-09T11:05:41.796Z,18.53
2024-05-09T11:10:43.915Z,19.07
2024-05-09T11:15:44.780Z,18.79
2024-05-09T11:20:45.598Z,18.70
2024-05-09T11:25:50.742Z,18.56
2024-05-09T11:30:51.632Z,18.33
2024-05-09T11:35:52.582Z,19.60
2024-05-09T11:40:53.992Z,19.28
2024-05-09T11:45:56.344Z,18.25
2024-05-09T11:50:57.146Z,17.25
2024-05-09T11:55:57.985Z,18.99
2024-05-09T12:01:00.977Z,19.10
2024-05-09T12:06:03.173Z,17.64
2024-05-09T12:11:04.475Z,17.52
2024-05-09T12:16:05.816Z,17.80
2024-05-09T12:21:06.784Z,17.32
2024-05-09T12:26:09.264Z,17.14
2024-05-09T12:31:10.235Z,18.53
2024-05-09T12:36:11.257Z,18.74
2024-05-09T12:41:12.042Z,19.19
2024-05-09T12:46:12.881Z,18.74
2024-05-09T12:51:13.715Z,19.51
2024-05-09T12:56:14.519Z,19.45
2024-05-09T13:01:15.400Z,19.52
2024-05-09T13:06:16.694Z,19.03
2024-05-09T13:11:17.598Z,18.90
2024-05-09T13:16:18.597Z,18.73
2024-05-09T13:21:19.653Z,18.71
2024-05-09T13:26:20.458Z,19.07
2024-05-09T13:31:21.370Z,18.91
2024-05-09T13:36:22.344Z,18.46
2024-05-09T13:41:23.108Z,18.19
2024-05-09T13:46:24.032Z,18.51
2024-05-09T13:51:25.062Z,18.06
2024-05-09T13:56:25.834Z,18.53
2024-05-09T14:01:26.703Z,19.25
2024-05-09T14:06:27.664Z,19.29
2024-05-09T14:11:28.502Z,19.41
2024-05-09T14:16:29.549Z,19.67
2024-05-09T14:21:30.441Z,19.93
2024-05-09T14:26:31.295Z,19.05
2024-05-09T14:31:32.677Z,18.63
2024-05-09T14:36:34.171Z,18.64
2024-05-09T14:41:34.962Z,18.36
2024-05-09T14:46:35.773Z,19.03
2024-05-09T14:51:36.593Z,19.88
2024-05-09T14:56:37.477Z,19.71
2024-05-09T15:01:38.464Z,19.84
2024-05-09T15:06:40.233Z,18.47
2024-05-09T15:11:41.158Z,18.34
2024-05-09T15:16:42.007Z,18.03
2024-05-09T15:21:42.932Z,18.04
2024-05-09T15:26:43.791Z,18.61
2024-05-09T15:31:44.693Z,19.44
2024-05-09T15:36:50.093Z,19.91
2024-05-09T15:41:55.567Z,19.74
2024-05-09T15:46:56.358Z,19.69
2024-05-09T15:51:57.177Z,18.89
2024-05-09T15:56:58.049Z,18.27
2024-05-09T16:01:59.056Z,18.08
2024-05-09T16:06:59.993Z,17.89
2024-05-09T16:12:00.870Z,17.72
2024-05-09T16:17:01.768Z,17.84
2024-05-09T16:22:02.863Z,18.16
2024-05-09T16:27:04.097Z,17.85
2024-05-09T16:32:05.815Z,18.27
2024-05-09T16:37:09.387Z,18.60
2024-05-09T16:42:10.187Z,18.76
2024-05-09T16:47:11.000Z,18.88
2024-05-09T16:52:12.210Z,19.02
2024-05-09T16:57:13.228Z,18.59
2024-05-09T17:02:14.383Z,17.76
2024-05-09T17:07:15.601Z,17.49
2024-05-09T17:12:16.511Z,17.49
2024-05-09T17:17:18.529Z,17.36
2024-05-09T17:22:19.873Z,17.39
2024-05-09T17:27:20.764Z,17.30
2024-05-09T17:32:22.077Z,17.31
2024-05-09T17:37:23.136Z,17.02
2024-05-09T17:42:23.934Z,16.90
2024-05-09T17:47:24.810Z,16.83
2024-05-09T17:52:25.693Z,16.70
2024-05-09T17:57:26.608Z,16.62
2024-05-09T18:02:27.511Z,16.47
2024-05-09T18:07:28.635Z,16.44
2024-05-09T18:12:29.417Z,16.16
2024-05-09T18:17:30.510Z,15.89
2024-05-09T18:22:31.610Z,15.70
2024-05-09T18:27:32.457Z,15.53
2024-05-09T18:32:33.761Z,15.37
2024-05-09T18:37:34.678Z,15.27
2024-05-09T18:42:35.526Z,14.96
2024-05-09T18:47:36.512Z,14.89
2024-05-09T18:52:37.332Z,14.53
2024-05-09T18:57:38.330Z,14.28
2024-05-09T19:02:39.440Z,14.22
2024-05-09T19:07:40.831Z,14.13
2024-05-09T19:12:41.823Z,14.04
2024-05-09T19:17:42.728Z,13.92
2024-05-09T19:22:43.577Z,13.69
2024-05-09T19:27:44.915Z,13.55
2024-05-09T19:32:45.893Z,13.33
2024-05-09T19:37:49.329Z,12.97
2024-05-09T19:42:50.152Z,12.75
2024-05-09T19:47:51.270Z,12.47
2024-05-09T19:52:52.146Z,12.38
2024-05-09T19:57:52.988Z,12.36
2024-05-09T20:02:53.961Z,12.40
2024-05-09T20:07:54.920Z,12.45
2024-05-09T20:12:55.841Z,12.47
2024-05-09T20:17:56.992Z,12.47
2024-05-09T20:22:57.978Z,12.45
2024-05-09T20:27:58.925Z,12.47
2024-05-09T20:33:02.711Z,12.38
2024-05-09T20:38:04.994Z,12.32
2024-05-09T20:43:08.134Z,12.24
2024-05-09T20:48:09.461Z,12.17
2024-05-09T20:53:11.762Z,12.14
2024-05-09T20:58:13.322Z,12.23
2024-05-09T21:03:16.600Z,12.16
2024-05-09T21:08:18.841Z,12.04
2024-05-09T21:13:19.636Z,11.93
2024-05-09T21:18:20.449Z,11.87
2024-05-09T21:23:21.331Z,11.84
2024-05-09T21:28:22.111Z,11.82
2024-05-09T21:33:23.171Z,11.71
2024-05-09T21:38:24.134Z,11.85
2024-05-09T21:43:26.146Z,11.76
2024-05-09T21:48:26.953Z,11.70
2024-05-09T21:53:27.733Z,11.60
2024-05-09T21:58:28.551Z,11.61
2024-05-09T22:03:29.513Z,11.52
2024-05-09T22:08:30.356Z,11.48
2024-05-09T22:13:31.176Z,11.54
2024-05-09T22:18:32.001Z,11.52
2024-05-09T22:23:32.850Z,11.38
2024-05-09T22:28:33.907Z,11.35
2024-05-09T22:33:35.028Z,11.30
2024-05-09T22:38:36.016Z,11.24
2024-05-09T22:43:36.769Z,11.37
2024-05-09T22:48:37.841Z,11.46
2024-05-09T22:53:38.893Z,11.39
2024-05-09T22:58:39.672Z,11.47
2024-05-09T23:03:40.777Z,11.58
2024-05-09T23:08:41.770Z,11.54
2024-05-09T23:13:42.590Z,11.55
2024-05-09T23:18:43.407Z,11.51
2024-05-09T23:23:44.231Z,11.45
2024-05-09T23:28:45.806Z,11.72
2024-05-09T23:33:47.041Z,11.46
2024-05-09T23:38:47.996Z,11.66
2024-05-09T23:43:48.743Z,11.39
2024-05-09T23:48:50.416Z,11.31
2024-05-09T23:53:51.563Z,11.16
2024-05-09T23:58:52.326Z,11.12
